Terminal Aerodrome Forecast
Issued by NWS

Home | Current Version | Previous Version | Text Only | Print | Product List | Glossary On
Versions: 1 2 3 4 5 6 7 8 9 10 11 12 13 14
000
FTUS42 TJSJ 240539
TAFNCM
TAF
TNCM 240539Z 2406/2506 08008KT P6SM VCSH SCT018
     FM241300 11012KT P6SM -SHRA SCT018 SCT030
     FM242200 09009KT P6SM FEW018=

USA.gov is the U.S. government's official web portal to all federal, state and local government web resources and services.